sensor_id;sensor_type;location;lat;lon;timestamp;pressure;altitude;pressure_sealevel;temperature;humidity
23643;BME280;11998;55.788;37.572;2023-07-24T00:00:31;97914.31;;;85.07;12.44
23643;BME280;11998;55.788;37.572;2023-07-24T00:01:34;97905.78;;;83.25;12.65
23643;BME280;11998;55.788;37.572;2023-07-24T00:02:34;97894.78;;;82.80;12.78
23643;BME280;11998;55.788;37.572;2023-07-24T00:03:35;97889.22;;;82.44;12.76
23643;BME280;11998;55.788;37.572;2023-07-24T00:04:35;97896.91;;;84.19;12.50
23643;BME280;11998;55.788;37.572;2023-07-24T00:05:36;97904.69;;;84.09;12.58
23643;BME280;11998;55.788;37.572;2023-07-24T00:06:36;97901.59;;;83.81;12.64
23643;BME280;11998;55.788;37.572;2023-07-24T00:07:37;97905.69;;;83.91;12.43
23643;BME280;11998;55.788;37.572;2023-07-24T00:08:38;97907.72;;;84.30;12.43
23643;BME280;11998;55.788;37.572;2023-07-24T00:09:38;97903.00;;;83.67;12.74
23643;BME280;11998;55.788;37.572;2023-07-24T00:10:39;97904.41;;;83.39;12.60
23643;BME280;11998;55.788;37.572;2023-07-24T00:11:39;97905.53;;;83.23;12.77
23643;BME280;11998;55.788;37.572;2023-07-24T00:12:40;97908.25;;;83.60;12.71
23643;BME280;11998;55.788;37.572;2023-07-24T00:13:40;97907.16;;;84.18;12.72
23643;BME280;11998;55.788;37.572;2023-07-24T00:14:41;97914.50;;;84.38;12.93
23643;BME280;11998;55.788;37.572;2023-07-24T00:15:41;97928.59;;;85.08;12.44
23643;BME280;11998;55.788;37.572;2023-07-24T00:16:42;97922.13;;;84.89;12.72
23643;BME280;11998;55.788;37.572;2023-07-24T00:17:42;97921.78;;;84.51;12.65
23643;BME280;11998;55.788;37.572;2023-07-24T00:18:43;97922.50;;;84.09;12.48
23643;BME280;11998;55.788;37.572;2023-07-24T00:19:43;97922.13;;;84.89;12.55
23643;BME280;11998;55.788;37.572;2023-07-24T00:20:44;97921.25;;;84.39;12.63
23643;BME280;11998;55.788;37.572;2023-07-24T00:21:44;97923.41;;;84.59;12.58
23643;BME280;11998;55.788;37.572;2023-07-24T00:22:45;97915.16;;;84.24;12.71
23643;BME280;11998;55.788;37.572;2023-07-24T00:23:45;97922.72;;;84.11;12.68
23643;BME280;11998;55.788;37.572;2023-07-24T00:24:46;97916.97;;;84.68;12.51
23643;BME280;11998;55.788;37.572;2023-07-24T00:25:46;97911.41;;;83.76;12.82
23643;BME280;11998;55.788;37.572;2023-07-24T00:26:47;97898.00;;;83.22;12.79
23643;BME280;11998;55.788;37.572;2023-07-24T00:27:47;97900.84;;;83.54;12.76
23643;BME280;11998;55.788;37.572;2023-07-24T00:28:48;97902.84;;;83.85;12.64
23643;BME280;11998;55.788;37.572;2023-07-24T00:29:48;97909.00;;;83.74;12.56
23643;BME280;11998;55.788;37.572;2023-07-24T00:30:49;97902.41;;;83.81;12.56
23643;BME280;11998;55.788;37.572;2023-07-24T00:31:49;97916.84;;;84.74;12.50
23643;BME280;11998;55.788;37.572;2023-07-24T00:32:50;97915.47;;;84.54;12.73
23643;BME280;11998;55.788;37.572;2023-07-24T00:33:50;97910.97;;;84.40;12.57
23643;BME280;11998;55.788;37.572;2023-07-24T00:34:52;97915.66;;;84.77;12.73
23643;BME280;11998;55.788;37.572;2023-07-24T00:35:56;97917.13;;;84.84;12.72
23643;BME280;11998;55.788;37.572;2023-07-24T00:36:59;97901.13;;;84.45;12.52
23643;BME280;11998;55.788;37.572;2023-07-24T00:38:00;97905.03;;;84.40;12.67
23643;BME280;11998;55.788;37.572;2023-07-24T00:39:00;97905.75;;;84.74;12.50
23643;BME280;11998;55.788;37.572;2023-07-24T00:40:02;97899.75;;;83.91;12.59
23643;BME280;11998;55.788;37.572;2023-07-24T00:41:03;97898.97;;;84.25;12.72
23643;BME280;11998;55.788;37.572;2023-07-24T00:42:03;97887.75;;;83.23;12.65
23643;BME280;11998;55.788;37.572;2023-07-24T00:43:04;97890.44;;;84.08;12.50
23643;BME280;11998;55.788;37.572;2023-07-24T00:44:04;97899.00;;;83.98;12.50
23643;BME280;11998;55.788;37.572;2023-07-24T00:45:05;97896.97;;;84.06;12.58
23643;BME280;11998;55.788;37.572;2023-07-24T00:46:06;97898.88;;;84.59;12.64
23643;BME280;11998;55.788;37.572;2023-07-24T00:47:07;97892.84;;;83.49;12.64
23643;BME280;11998;55.788;37.572;2023-07-24T00:48:08;97890.72;;;83.23;12.75
23643;BME280;11998;55.788;37.572;2023-07-24T00:49:09;97888.44;;;83.42;12.57
23643;BME280;11998;55.788;37.572;2023-07-24T00:50:11;97881.81;;;83.10;12.77
23643;BME280;11998;55.788;37.572;2023-07-24T00:51:11;97893.31;;;83.66;12.57
23643;BME280;11998;55.788;37.572;2023-07-24T00:52:12;97894.25;;;83.95;12.71
23643;BME280;11998;55.788;37.572;2023-07-24T00:53:13;97903.00;;;84.35;12.57
23643;BME280;11998;55.788;37.572;2023-07-24T00:54:16;97899.22;;;84.13;12.78
23643;BME280;11998;55.788;37.572;2023-07-24T00:55:18;97900.97;;;84.71;12.63
23643;BME280;11998;55.788;37.572;2023-07-24T00:56:19;97905.38;;;84.57;12.74
23643;BME280;11998;55.788;37.572;2023-07-24T00:57:19;97904.56;;;84.36;12.53
23643;BME280;11998;55.788;37.572;2023-07-24T00:58:21;97899.06;;;84.82;12.67
23643;BME280;11998;55.788;37.572;2023-07-24T00:59:21;97908.34;;;84.36;12.77
23643;BME280;11998;55.788;37.572;2023-07-24T01:00:22;97893.16;;;83.72;12.77
23643;BME280;11998;55.788;37.572;2023-07-24T01:01:23;97897.31;;;83.55;12.64
23643;BME280;11998;55.788;37.572;2023-07-24T01:02:25;97893.44;;;83.34;12.73
23643;BME280;11998;55.788;37.572;2023-07-24T01:03:32;97898.97;;;84.25;12.43
23643;BME280;11998;55.788;37.572;2023-07-24T01:04:33;97907.66;;;84.64;12.57
23643;BME280;11998;55.788;37.572;2023-07-24T01:05:33;97899.75;;;84.67;12.68
23643;BME280;11998;55.788;37.572;2023-07-24T01:06:34;97897.31;;;83.55;12.69
23643;BME280;11998;55.788;37.572;2023-07-24T01:07:35;97894.00;;;83.46;12.62
23643;BME280;11998;55.788;37.572;2023-07-24T01:08:36;97897.47;;;84.18;12.69
23643;BME280;11998;55.788;37.572;2023-07-24T01:09:36;97896.19;;;83.32;12.82
23643;BME280;11998;55.788;37.572;2023-07-24T01:10:37;97888.53;;;83.23;12.66
23643;BME280;11998;55.788;37.572;2023-07-24T01:11:52;97896.88;;;83.25;12.62
23643;BME280;11998;55.788;37.572;2023-07-24T01:13:01;97891.50;;;84.31;12.60
23643;BME280;11998;55.788;37.572;2023-07-24T01:15:14;97900.72;;;83.46;12.63
23643;BME280;11998;55.788;37.572;2023-07-24T01:16:18;97892.72;;;83.68;12.68
23643;BME280;11998;55.788;37.572;2023-07-24T01:17:23;97891.97;;;84.01;12.59
23643;BME280;11998;55.788;37.572;2023-07-24T01:18:24;97900.41;;;83.97;12.68
23643;BME280;11998;55.788;37.572;2023-07-24T01:20:30;97887.84;;;83.57;12.87
23643;BME280;11998;55.788;37.572;2023-07-24T01:21:44;97890.63;;;83.89;12.54
23643;BME280;11998;55.788;37.572;2023-07-24T01:23:04;97891.78;;;83.86;12.77
23643;BME280;11998;55.788;37.572;2023-07-24T01:26:00;97902.84;;;85.11;12.38
23643;BME280;11998;55.788;37.572;2023-07-24T01:27:02;97899.97;;;84.48;12.59
23643;BME280;11998;55.788;37.572;2023-07-24T01:28:09;97899.28;;;85.05;12.62
23643;BME280;11998;55.788;37.572;2023-07-24T01:29:09;97894.44;;;84.73;12.62
23643;BME280;11998;55.788;37.572;2023-07-24T01:30:11;97884.25;;;83.85;12.65
23643;BME280;11998;55.788;37.572;2023-07-24T01:31:12;97894.03;;;84.48;12.56
23643;BME280;11998;55.788;37.572;2023-07-24T01:32:12;97886.59;;;85.04;12.58
23643;BME280;11998;55.788;37.572;2023-07-24T01:33:13;97886.09;;;85.49;12.57
23643;BME280;11998;55.788;37.572;2023-07-24T01:34:14;97884.91;;;84.88;12.62
23643;BME280;11998;55.788;37.572;2023-07-24T01:35:15;97886.50;;;84.47;12.60
23643;BME280;11998;55.788;37.572;2023-07-24T01:36:18;97882.56;;;84.10;12.75
23643;BME280;11998;55.788;37.572;2023-07-24T01:37:20;97875.31;;;83.51;12.59
23643;BME280;11998;55.788;37.572;2023-07-24T01:38:24;97871.03;;;83.73;12.71
23643;BME280;11998;55.788;37.572;2023-07-24T01:39:25;97867.91;;;83.44;12.81
23643;BME280;11998;55.788;37.572;2023-07-24T01:40:26;97883.91;;;83.88;12.69
23643;BME280;11998;55.788;37.572;2023-07-24T01:41:27;97872.81;;;82.75;12.85
23643;BME280;11998;55.788;37.572;2023-07-24T01:42:28;97878.78;;;83.89;12.66
23643;BME280;11998;55.788;37.572;2023-07-24T01:43:29;97880.41;;;84.32;12.41
23643;BME280;11998;55.788;37.572;2023-07-24T01:44:30;97885.94;;;84.28;12.66
23643;BME280;11998;55.788;37.572;2023-07-24T01:45:31;97885.31;;;84.08;12.70
23643;BME280;11998;55.788;37.572;2023-07-24T01:46:32;97886.69;;;84.07;12.51
23643;BME280;11998;55.788;37.572;2023-07-24T01:47:32;97887.09;;;84.25;12.54
23643;BME280;11998;55.788;37.572;2023-07-24T01:48:33;97894.03;;;84.48;12.67
23643;BME280;11998;55.788;37.572;2023-07-24T01:49:33;97886.13;;;83.48;12.70
23643;BME280;11998;55.788;37.572;2023-07-24T01:50:34;97880.19;;;83.61;12.79
23643;BME280;11998;55.788;37.572;2023-07-24T01:51:34;97892.13;;;84.16;12.51
23643;BME280;11998;55.788;37.572;2023-07-24T01:52:35;97887.28;;;83.45;12.60
23643;BME280;11998;55.788;37.572;2023-07-24T01:53:35;97879.13;;;83.38;12.51
23643;BME280;11998;55.788;37.572;2023-07-24T01:54:36;97890.78;;;84.38;12.51
23643;BME280;11998;55.788;37.572;2023-07-24T01:55:36;97896.59;;;84.65;12.66
23643;BME280;11998;55.788;37.572;2023-07-24T01:56:37;97898.59;;;84.70;12.39
23643;BME280;11998;55.788;37.572;2023-07-24T01:57:39;97891.91;;;84.14;12.58
23643;BME280;11998;55.788;37.572;2023-07-24T01:58:40;97886.91;;;84.09;12.55
23643;BME280;11998;55.788;37.572;2023-07-24T01:59:40;97887.03;;;83.56;12.73
23643;BME280;11998;55.788;37.572;2023-07-24T02:00:41;97880.94;;;83.28;12.81
23643;BME280;11998;55.788;37.572;2023-07-24T02:01:41;97894.88;;;84.14;12.54
23643;BME280;11998;55.788;37.572;2023-07-24T02:02:42;97889.75;;;83.81;12.55
23643;BME280;11998;55.788;37.572;2023-07-24T02:03:42;97890.03;;;84.04;12.51
23643;BME280;11998;55.788;37.572;2023-07-24T02:04:43;97881.53;;;83.87;12.59
23643;BME280;11998;55.788;37.572;2023-07-24T02:05:49;97889.06;;;84.64;12.26
23643;BME280;11998;55.788;37.572;2023-07-24T02:06:49;97889.06;;;84.92;12.33
23643;BME280;11998;55.788;37.572;2023-07-24T02:07:50;97891.84;;;84.48;12.56
23643;BME280;11998;55.788;37.572;2023-07-24T02:08:50;97896.88;;;85.03;12.55
23643;BME280;11998;55.788;37.572;2023-07-24T02:09:51;97895.03;;;84.71;12.44
23643;BME280;11998;55.788;37.572;2023-07-24T02:10:52;97892.03;;;84.43;12.60
23643;BME280;11998;55.788;37.572;2023-07-24T02:11:52;97894.44;;;84.73;12.43
23643;BME280;11998;55.788;37.572;2023-07-24T02:12:53;97900.41;;;84.31;12.54
23643;BME280;11998;55.788;37.572;2023-07-24T02:13:54;97899.19;;;84.27;12.70
23643;BME280;11998;55.788;37.572;2023-07-24T02:14:55;97900.19;;;84.29;12.67
23643;BME280;11998;55.788;37.572;2023-07-24T02:15:56;97897.84;;;84.14;12.69
23643;BME280;11998;55.788;37.572;2023-07-24T02:16:56;97898.16;;;84.45;12.54
23643;BME280;11998;55.788;37.572;2023-07-24T02:17:57;97891.47;;;84.10;12.80
23643;BME280;11998;55.788;37.572;2023-07-24T02:18:57;97903.88;;;84.43;12.41
23643;BME280;11998;55.788;37.572;2023-07-24T02:19:58;97895.81;;;84.93;12.72
23643;BME280;11998;55.788;37.572;2023-07-24T02:20:58;97895.47;;;83.66;12.58
23643;BME280;11998;55.788;37.572;2023-07-24T02:21:59;97896.13;;;83.85;12.65
23643;BME280;11998;55.788;37.572;2023-07-24T02:22:59;97890.31;;;84.13;12.62
23643;BME280;11998;55.788;37.572;2023-07-24T02:24:00;97890.25;;;83.45;12.51
23643;BME280;11998;55.788;37.572;2023-07-24T02:25:00;97897.31;;;83.55;12.57
23643;BME280;11998;55.788;37.572;2023-07-24T02:26:01;97892.41;;;83.31;12.78
23643;BME280;11998;55.788;37.572;2023-07-24T02:27:02;97877.50;;;82.97;12.74
23643;BME280;11998;55.788;37.572;2023-07-24T02:28:02;97878.84;;;83.10;12.67
23643;BME280;11998;55.788;37.572;2023-07-24T02:29:03;97886.66;;;84.21;12.57
23643;BME280;11998;55.788;37.572;2023-07-24T02:30:04;97893.66;;;84.31;12.41
23643;BME280;11998;55.788;37.572;2023-07-24T02:31:04;97887.38;;;83.79;12.66
23643;BME280;11998;55.788;37.572;2023-07-24T02:32:05;97884.06;;;83.70;12.56
23643;BME280;11998;55.788;37.572;2023-07-24T02:33:05;97894.97;;;83.88;12.72
23643;BME280;11998;55.788;37.572;2023-07-24T02:34:06;97901.50;;;84.41;12.53
23643;BME280;11998;55.788;37.572;2023-07-24T02:35:07;97889.91;;;83.96;12.53
23643;BME280;11998;55.788;37.572;2023-07-24T02:36:08;97891.91;;;84.77;12.60
23643;BME280;11998;55.788;37.572;2023-07-24T02:37:09;97899.19;;;84.27;12.53
23643;BME280;11998;55.788;37.572;2023-07-24T02:38:09;97899.16;;;84.47;12.58
23643;BME280;11998;55.788;37.572;2023-07-24T02:39:10;97896.38;;;84.08;12.74
23643;BME280;11998;55.788;37.572;2023-07-24T02:40:11;97901.31;;;84.05;12.56
23643;BME280;11998;55.788;37.572;2023-07-24T02:41:11;97897.00;;;83.93;12.54
23643;BME280;11998;55.788;37.572;2023-07-24T02:42:12;97896.34;;;82.68;12.84
23643;BME280;11998;55.788;37.572;2023-07-24T02:43:12;97876.16;;;81.21;12.73
23643;BME280;11998;55.788;37.572;2023-07-24T02:44:13;97871.50;;;82.26;12.74
23643;BME280;11998;55.788;37.572;2023-07-24T02:45:14;97873.59;;;82.12;12.79
23643;BME280;11998;55.788;37.572;2023-07-24T02:46:14;97869.94;;;82.06;12.56
23643;BME280;11998;55.788;37.572;2023-07-24T02:47:15;97882.66;;;83.84;12.37
23643;BME280;11998;55.788;37.572;2023-07-24T02:48:15;97896.47;;;84.36;12.42
23643;BME280;11998;55.788;37.572;2023-07-24T02:49:16;97906.19;;;84.37;12.46
23643;BME280;11998;55.788;37.572;2023-07-24T02:50:16;97900.72;;;84.41;12.64
23643;BME280;11998;55.788;37.572;2023-07-24T02:51:17;97898.97;;;84.11;12.66
23643;BME280;11998;55.788;37.572;2023-07-24T02:52:17;97904.31;;;84.89;12.38
23643;BME280;11998;55.788;37.572;2023-07-24T02:53:18;97912.69;;;84.56;12.59
23643;BME280;11998;55.788;37.572;2023-07-24T02:54:19;97902.72;;;84.88;12.39
23643;BME280;11998;55.788;37.572;2023-07-24T02:55:19;97916.28;;;85.32;12.34
23643;BME280;11998;55.788;37.572;2023-07-24T02:56:20;97913.41;;;84.91;12.53
23643;BME280;11998;55.788;37.572;2023-07-24T02:57:20;97910.53;;;84.78;12.41
23643;BME280;11998;55.788;37.572;2023-07-24T02:58:21;97903.84;;;84.01;12.57
23643;BME280;11998;55.788;37.572;2023-07-24T02:59:22;97905.69;;;84.67;12.39
23643;BME280;11998;55.788;37.572;2023-07-24T03:00:22;97905.91;;;84.48;12.50
23643;BME280;11998;55.788;37.572;2023-07-24T03:01:23;97890.69;;;83.97;12.54
23643;BME280;11998;55.788;37.572;2023-07-24T03:02:23;97886.00;;;83.80;12.64
23643;BME280;11998;55.788;37.572;2023-07-24T03:03:24;97886.66;;;84.21;12.63
23643;BME280;11998;55.788;37.572;2023-07-24T03:04:24;97897.84;;;85.34;12.28
23643;BME280;11998;55.788;37.572;2023-07-24T03:05:25;97896.75;;;85.45;12.36
23643;BME280;11998;55.788;37.572;2023-07-24T03:06:25;97904.69;;;85.21;12.44
23643;BME280;11998;55.788;37.572;2023-07-24T03:07:26;97903.06;;;84.84;12.52
23643;BME280;11998;55.788;37.572;2023-07-24T03:08:26;97893.28;;;84.34;12.72
23643;BME280;11998;55.788;37.572;2023-07-24T03:09:27;97887.34;;;84.13;12.58
23643;BME280;11998;55.788;37.572;2023-07-24T03:10:28;97901.81;;;85.29;12.47
23643;BME280;11998;55.788;37.572;2023-07-24T03:11:28;97899.97;;;84.97;12.58
23643;BME280;11998;55.788;37.572;2023-07-24T03:12:29;97898.75;;;85.21;12.46
23643;BME280;11998;55.788;37.572;2023-07-24T03:13:29;97899.31;;;85.12;12.63
23643;BME280;11998;55.788;37.572;2023-07-24T03:14:30;97895.19;;;83.90;12.49
23643;BME280;11998;55.788;37.572;2023-07-24T03:15:31;97883.63;;;83.66;12.52
23643;BME280;11998;55.788;37.572;2023-07-24T03:16:31;97885.94;;;84.28;12.55
23643;BME280;11998;55.788;37.572;2023-07-24T03:17:32;97894.00;;;84.06;12.41
23643;BME280;11998;55.788;37.572;2023-07-24T03:18:32;97898.97;;;84.25;12.73
23643;BME280;11998;55.788;37.572;2023-07-24T03:19:33;97888.25;;;84.22;12.43
23643;BME280;11998;55.788;37.572;2023-07-24T03:20:33;97898.03;;;85.00;12.65
23643;BME280;11998;55.788;37.572;2023-07-24T03:21:34;97908.63;;;85.96;12.64
23643;BME280;11998;55.788;37.572;2023-07-24T03:22:34;97910.28;;;86.20;12.35
23643;BME280;11998;55.788;37.572;2023-07-24T03:23:35;97917.50;;;86.48;12.20
23643;BME280;11998;55.788;37.572;2023-07-24T03:24:36;97918.47;;;86.27;12.54
23643;BME280;11998;55.788;37.572;2023-07-24T03:25:36;97920.50;;;86.86;12.42
23643;BME280;11998;55.788;37.572;2023-07-24T03:26:37;97920.44;;;86.32;12.53
23643;BME280;11998;55.788;37.572;2023-07-24T03:27:37;97927.19;;;86.25;12.48
23643;BME280;11998;55.788;37.572;2023-07-24T03:28:38;97931.91;;;86.13;12.49
23643;BME280;11998;55.788;37.572;2023-07-24T03:29:38;97924.47;;;86.73;12.32
23643;BME280;11998;55.788;37.572;2023-07-24T03:30:41;97925.06;;;86.49;12.49
23643;BME280;11998;55.788;37.572;2023-07-24T03:31:42;97930.66;;;85.85;12.55
23643;BME280;11998;55.788;37.572;2023-07-24T03:32:43;97929.16;;;85.71;12.64
23643;BME280;11998;55.788;37.572;2023-07-24T03:33:43;97923.88;;;85.13;12.61
23643;BME280;11998;55.788;37.572;2023-07-24T03:34:44;97930.38;;;85.40;12.56
23643;BME280;11998;55.788;37.572;2023-07-24T03:35:44;97926.97;;;86.23;12.42
23643;BME280;11998;55.788;37.572;2023-07-24T03:36:45;97921.13;;;85.95;12.51
23643;BME280;11998;55.788;37.572;2023-07-24T03:37:46;97920.69;;;86.65;12.18
23643;BME280;11998;55.788;37.572;2023-07-24T03:38:46;97921.28;;;86.86;12.39
23643;BME280;11998;55.788;37.572;2023-07-24T03:39:47;97918.50;;;86.73;12.43
23643;BME280;11998;55.788;37.572;2023-07-24T03:40:47;97923.94;;;86.08;12.54
23643;BME280;11998;55.788;37.572;2023-07-24T03:41:48;97918.47;;;86.27;12.47
23643;BME280;11998;55.788;37.572;2023-07-24T03:42:49;97921.28;;;86.86;12.19
23643;BME280;11998;55.788;37.572;2023-07-24T03:43:49;97918.47;;;86.42;12.21
23643;BME280;11998;55.788;37.572;2023-07-24T03:44:50;97920.66;;;85.75;12.53
23643;BME280;11998;55.788;37.572;2023-07-24T03:45:51;97919.84;;;86.26;12.52
23643;BME280;11998;55.788;37.572;2023-07-24T03:46:51;97920.06;;;86.59;12.48
23643;BME280;11998;55.788;37.572;2023-07-24T03:47:52;97924.81;;;86.47;12.52
23643;BME280;11998;55.788;37.572;2023-07-24T03:48:52;97918.56;;;85.55;12.55
23643;BME280;11998;55.788;37.572;2023-07-24T03:49:53;97912.22;;;85.87;12.48
23643;BME280;11998;55.788;37.572;2023-07-24T03:51:00;97908.53;;;85.29;12.42
23643;BME280;11998;55.788;37.572;2023-07-24T03:52:01;97909.38;;;85.81;12.38
23643;BME280;11998;55.788;37.572;2023-07-24T03:53:01;97901.16;;;85.59;12.46
23643;BME280;11998;55.788;37.572;2023-07-24T03:54:02;97908.16;;;86.28;12.49
23643;BME280;11998;55.788;37.572;2023-07-24T03:55:03;97904.97;;;86.80;12.49
23643;BME280;11998;55.788;37.572;2023-07-24T03:56:03;97901.53;;;84.91;12.54
23643;BME280;11998;55.788;37.572;2023-07-24T03:57:04;97900.56;;;86.12;12.51
23643;BME280;11998;55.788;37.572;2023-07-24T03:58:05;97914.28;;;86.84;12.31
23643;BME280;11998;55.788;37.572;2023-07-24T03:59:06;97915.63;;;87.21;12.29
23643;BME280;11998;55.788;37.572;2023-07-24T04:00:07;97910.13;;;86.41;12.24
23643;BME280;11998;55.788;37.572;2023-07-24T04:01:08;97916.06;;;87.25;12.24
23643;BME280;11998;55.788;37.572;2023-07-24T04:02:09;97921.38;;;87.82;12.18
23643;BME280;11998;55.788;37.572;2023-07-24T04:03:09;97919.00;;;87.80;12.58
23643;BME280;11998;55.788;37.572;2023-07-24T04:04:10;97922.47;;;88.02;12.29
23643;BME280;11998;55.788;37.572;2023-07-24T04:05:11;97926.44;;;88.37;12.27
23643;BME280;11998;55.788;37.572;2023-07-24T04:06:11;97931.81;;;87.66;12.14
23643;BME280;11998;55.788;37.572;2023-07-24T04:07:12;97926.00;;;88.16;12.19
23643;BME280;11998;55.788;37.572;2023-07-24T04:08:12;97933.06;;;88.78;12.02
23643;BME280;11998;55.788;37.572;2023-07-24T04:09:13;97942.06;;;88.95;12.19
23643;BME280;11998;55.788;37.572;2023-07-24T04:10:15;97930.25;;;87.57;12.17
23643;BME280;11998;55.788;37.572;2023-07-24T04:11:15;97931.22;;;86.66;12.25
23643;BME280;11998;55.788;37.572;2023-07-24T04:12:16;97925.91;;;87.43;12.32
23643;BME280;11998;55.788;37.572;2023-07-24T04:13:16;97921.53;;;87.51;12.31
23643;BME280;11998;55.788;37.572;2023-07-24T04:14:17;97926.81;;;88.08;12.09
23643;BME280;11998;55.788;37.572;2023-07-24T04:15:17;97938.09;;;88.50;11.91
23643;BME280;11998;55.788;37.572;2023-07-24T04:16:18;97928.06;;;88.05;12.26
23643;BME280;11998;55.788;37.572;2023-07-24T04:17:18;97928.69;;;88.29;12.40
23643;BME280;11998;55.788;37.572;2023-07-24T04:18:19;97926.97;;;88.18;12.30
23643;BME280;11998;55.788;37.572;2023-07-24T04:19:19;97926.38;;;88.70;12.18
23643;BME280;11998;55.788;37.572;2023-07-24T04:20:20;97930.44;;;88.64;12.19
23643;BME280;11998;55.788;37.572;2023-07-24T04:21:20;97935.59;;;88.89;12.23
23643;BME280;11998;55.788;37.572;2023-07-24T04:22:22;97940.16;;;88.90;12.02
23643;BME280;11998;55.788;37.572;2023-07-24T04:23:22;97934.16;;;88.90;12.10
23643;BME280;11998;55.788;37.572;2023-07-24T04:24:23;97930.06;;;87.95;12.38
23643;BME280;11998;55.788;37.572;2023-07-24T04:25:23;97935.41;;;88.62;12.24
23643;BME280;11998;55.788;37.572;2023-07-24T04:26:24;97943.53;;;89.29;12.65
23643;BME280;11998;55.788;37.572;2023-07-24T04:27:24;97942.59;;;88.34;12.20
23643;BME280;11998;55.788;37.572;2023-07-24T04:28:25;97940.63;;;88.79;12.17
23643;BME280;11998;55.788;37.572;2023-07-24T04:29:25;97921.25;;;86.71;12.59
23643;BME280;11998;55.788;37.572;2023-07-24T04:30:26;97923.94;;;86.08;12.43
23643;BME280;11998;55.788;37.572;2023-07-24T04:31:26;97924.41;;;87.04;12.22
23643;BME280;11998;55.788;37.572;2023-07-24T04:32:27;97916.81;;;87.33;12.23
23643;BME280;11998;55.788;37.572;2023-07-24T04:33:27;97921.25;;;88.13;12.22
23643;BME280;11998;55.788;37.572;2023-07-24T04:34:28;97915.66;;;87.29;12.18
23643;BME280;11998;55.788;37.572;2023-07-24T04:35:28;97904.97;;;87.03;12.39
23643;BME280;11998;55.788;37.572;2023-07-24T04:36:29;97917.00;;;87.83;12.23
23643;BME280;11998;55.788;37.572;2023-07-24T04:37:30;97910.06;;;87.33;12.13
23643;BME280;11998;55.788;37.572;2023-07-24T04:38:30;97923.22;;;88.68;11.92
23643;BME280;11998;55.788;37.572;2023-07-24T04:39:31;97939.84;;;90.63;11.87
23643;BME280;11998;55.788;37.572;2023-07-24T04:40:32;97945.28;;;90.94;11.84
23643;BME280;11998;55.788;37.572;2023-07-24T04:41:32;97946.91;;;92.63;12.01
23643;BME280;11998;55.788;37.572;2023-07-24T04:42:33;97963.13;;;93.77;12.11
23643;BME280;11998;55.788;37.572;2023-07-24T04:43:33;97965.97;;;93.63;11.99
23643;BME280;11998;55.788;37.572;2023-07-24T04:44:34;97968.16;;;93.95;11.76
23643;BME280;11998;55.788;37.572;2023-07-24T04:45:35;97964.03;;;94.47;11.95
23643;BME280;11998;55.788;37.572;2023-07-24T04:46:35;97978.88;;;95.78;11.44
23643;BME280;11998;55.788;37.572;2023-07-24T04:47:35;97985.91;;;96.34;11.64
23643;BME280;11998;55.788;37.572;2023-07-24T04:48:37;97970.38;;;96.00;11.72
23643;BME280;11998;55.788;37.572;2023-07-24T04:49:37;97971.00;;;96.24;11.90
23643;BME280;11998;55.788;37.572;2023-07-24T04:50:38;97963.09;;;95.92;11.78
23643;BME280;11998;55.788;37.572;2023-07-24T04:51:38;97959.72;;;95.34;11.70
23643;BME280;11998;55.788;37.572;2023-07-24T04:52:39;97960.91;;;95.67;11.90
23643;BME280;11998;55.788;37.572;2023-07-24T04:53:39;97952.13;;;94.73;12.08
23643;BME280;11998;55.788;37.572;2023-07-24T04:54:40;97938.50;;;94.25;11.78
23643;BME280;11998;55.788;37.572;2023-07-24T04:55:40;97940.22;;;94.63;12.10
23643;BME280;11998;55.788;37.572;2023-07-24T04:56:41;97922.94;;;93.27;12.14
23643;BME280;11998;55.788;37.572;2023-07-24T04:57:41;97926.75;;;93.61;11.67
23643;BME280;11998;55.788;37.572;2023-07-24T04:58:42;97926.59;;;94.15;11.73
23643;BME280;11998;55.788;37.572;2023-07-24T04:59:42;97920.28;;;93.88;11.65
23643;BME280;11998;55.788;37.572;2023-07-24T05:00:43;97921.31;;;93.81;11.86
23643;BME280;11998;55.788;37.572;2023-07-24T05:01:43;97915.84;;;92.80;11.87
23643;BME280;11998;55.788;37.572;2023-07-24T05:02:44;97910.13;;;92.84;12.09
23643;BME280;11998;55.788;37.572;2023-07-24T05:03:44;97909.88;;;92.49;11.82
23643;BME280;11998;55.788;37.572;2023-07-24T05:04:45;97901.25;;;90.67;12.22
23643;BME280;11998;55.788;37.572;2023-07-24T05:05:48;97895.88;;;90.19;12.25
23643;BME280;11998;55.788;37.572;2023-07-24T05:06:49;97887.59;;;90.83;12.04
23643;BME280;11998;55.788;37.572;2023-07-24T05:07:50;97889.97;;;91.04;12.00
23643;BME280;11998;55.788;37.572;2023-07-24T05:08:52;97901.34;;;91.15;12.19
23643;BME280;11998;55.788;37.572;2023-07-24T05:09:53;97890.78;;;90.49;12.07
23643;BME280;11998;55.788;37.572;2023-07-24T05:10:55;97895.81;;;91.12;11.98
23643;BME280;11998;55.788;37.572;2023-07-24T05:11:56;97889.00;;;90.82;11.94
23643;BME280;11998;55.788;37.572;2023-07-24T05:12:56;97899.88;;;91.65;11.82
23643;BME280;11998;55.788;37.572;2023-07-24T05:13:57;97896.94;;;91.45;11.96
23643;BME280;11998;55.788;37.572;2023-07-24T05:14:57;97909.97;;;92.61;12.03
23643;BME280;11998;55.788;37.572;2023-07-24T05:15:58;97918.44;;;92.95;12.08
23643;BME280;11998;55.788;37.572;2023-07-24T05:16:58;97912.00;;;93.10;11.85
23643;BME280;11998;55.788;37.572;2023-07-24T05:17:59;97930.53;;;94.30;11.60
23643;BME280;11998;55.788;37.572;2023-07-24T05:18:59;97948.16;;;95.68;11.48
23643;BME280;11998;55.788;37.572;2023-07-24T05:20:00;97953.28;;;97.15;11.38
23643;BME280;11998;55.788;37.572;2023-07-24T05:21:00;97956.00;;;97.38;11.54
23643;BME280;11998;55.788;37.572;2023-07-24T05:22:01;97960.31;;;97.63;11.48
23643;BME280;11998;55.788;37.572;2023-07-24T05:23:02;97959.91;;;97.54;11.83